Time;durP1;ratioP1;P1;durP2;ratioP2;P2;SDS_P1;SDS_P2;PMS_P1;PMS_P2;Temp;Humidity;BMP_temperature;BMP_pressure;BME280_temperature;BME280_humidity;BME280_pressure;Samples;Min_cycle;Max_cycle;Signal;HPM_P1;HPM_P2
2021/10/13 00:00:22;;;;;;;;;;;;;;;;;;1022430;29;1103;-24
2021/10/13 00:00:53;;;;;;;;;;;;;;;;;;1018497;29;959;-24
2021/10/13 00:01:24;;;;;;;;;;;;;;;;;;1018265;29;1073;-24
2021/10/13 00:01:55;;;;;;;;;;;;;;;;;;1014543;29;1022;-23
2021/10/13 00:02:25;;;;;;;;;;;;;;;;;;1006677;29;1566;-23
2021/10/13 00:02:56;;;;;;;;;;;;;;;;;;1002041;29;1428;-22
2021/10/13 00:03:26;;;;;;;;;;;;;;;;;;1006807;29;1188;-23
2021/10/13 00:03:57;;;;;;;;;;;;;;;;;;1010180;29;1334;-24
2021/10/13 00:04:28;;;;;;;;;;;;;;;;;;1018705;29;1155;-24
2021/10/13 00:04:58;;;;;;;;;;;;;;;;;;1014464;29;966;-25
2021/10/13 00:05:29;;;;;;;;;;;;;;;;;;1010521;29;1020;-23
2021/10/13 00:06:00;;;;;;;;;;;;;;;;;;1006863;29;1013;-22
2021/10/13 00:06:30;;;;;;;;;;;;;;;;;;1014478;29;1382;-24
2021/10/13 00:07:01;;;;;;;;;;;;;;;;;;1018076;29;1923;-23
2021/10/13 00:07:32;;;;;;;;;;;;;;;;;;1018809;29;1208;-23
2021/10/13 00:08:03;;;;;;;;;;;;;;;;;;1012074;29;1583;-24
2021/10/13 00:08:33;;;;;;;;;;;;;;;;;;1006936;29;1474;-22
2021/10/13 00:09:04;;;;;;;;;;;;;;;;;;1006844;29;1017;-23
2021/10/13 00:09:34;;;;;;;;;;;;;;;;;;1006948;29;1135;-24
2021/10/13 00:10:06;;;;;;;;;;;;;;;;;;1019376;29;945;-24
2021/10/13 00:10:37;;;;;;;;;;;;;;;;;;1022019;29;1375;-22
2021/10/13 00:11:07;;;;;;;;;;;;;;;;;;1018175;29;1124;-24
2021/10/13 00:11:39;;;;;;;;;;;;;;;;;;1018596;29;1299;-22
2021/10/13 00:12:09;;;;;;;;;;;;;;;;;;1006061;29;1271;-24
2021/10/13 00:12:39;;;;;;;;;;;;;;;;;;995664;29;1077;-24
2021/10/13 00:13:11;;;;;;;;;;;;;;;;;;1002881;29;1575;-23
2021/10/13 00:13:42;;;;;;;;;;;;;;;;;;1006688;29;1256;-24
2021/10/13 00:14:12;;;;;;;;;;;;;;;;;;1018631;29;913;-22
2021/10/13 00:14:42;;;;;;;;;;;;;;;;;;1018080;29;1712;-24
2021/10/13 00:15:13;;;;;;;;;;;;;;;;;;1018437;29;1536;-23
2021/10/13 00:15:44;;;;;;;;;;;;;;;;;;1018695;29;1136;-22
2021/10/13 00:16:15;;;;;;;;;;;;;;;;;;1013701;29;1537;-23
2021/10/13 00:16:53;;;;;;;;;;;;;;;;;;1014650;29;1150;-19
2021/10/13 00:17:23;;;;;;;;;;;;;;;;;;1014203;29;1617;-22
2021/10/13 00:17:54;;;;;;;;;;;;;;;;;;1014324;29;1000;-22
2021/10/13 00:18:25;;;;;;;;;;;;;;;;;;1010805;29;1056;-21
2021/10/13 00:18:55;;;;;;;;;;;;;;;;;;1010580;29;1152;-22
2021/10/13 00:19:27;;;;;;;;;;;;;;;;;;1006917;29;1162;-20
2021/10/13 00:19:58;;;;;;;;;;;;;;;;;;1014509;29;1544;-23
2021/10/13 00:20:28;;;;;;;;;;;;;;;;;;1019044;29;1269;-21
2021/10/13 00:20:58;;;;;;;;;;;;;;;;;;1018813;29;906;-21
2021/10/13 00:21:29;;;;;;;;;;;;;;;;;;1018941;29;1451;-20
2021/10/13 00:21:59;;;;;;;;;;;;;;;;;;1019134;29;1010;-20
2021/10/13 00:22:29;;;;;;;;;;;;;;;;;;1019098;29;1269;-20
2021/10/13 00:23:00;;;;;;;;;;;;;;;;;;1019099;29;1304;-22
2021/10/13 00:23:30;;;;;;;;;;;;;;;;;;1019306;29;1135;-20
2021/10/13 00:24:00;;;;;;;;;;;;;;;;;;1018707;29;1381;-20
2021/10/13 00:24:31;;;;;;;;;;;;;;;;;;1018147;29;1255;-19
2021/10/13 00:25:02;;;;;;;;;;;;;;;;;;1014392;29;1074;-21
2021/10/13 00:25:33;;;;;;;;;;;;;;;;;;1014714;29;1002;-22
2021/10/13 00:26:03;;;;;;;;;;;;;;;;;;1014432;29;1367;-20
2021/10/13 00:26:34;;;;;;;;;;;;;;;;;;1018211;29;1359;-19
2021/10/13 00:27:04;;;;;;;;;;;;;;;;;;1014336;29;1956;-21
2021/10/13 00:27:35;;;;;;;;;;;;;;;;;;1014755;29;910;-19
2021/10/13 00:28:05;;;;;;;;;;;;;;;;;;1021834;29;1253;-20
2021/10/13 00:28:35;;;;;;;;;;;;;;;;;;1019422;29;1041;-21
2021/10/13 00:29:06;;;;;;;;;;;;;;;;;;1018780;29;1280;-20
2021/10/13 00:29:36;;;;;;;;;;;;;;;;;;1019252;29;1187;-20
2021/10/13 00:30:07;;;;;;;;;;;;;;;;;;1019027;29;1288;-20
2021/10/13 00:30:37;;;;;;;;;;;;;;;;;;1018963;29;1472;-22
2021/10/13 00:31:08;;;;;;;;;;;;;;;;;;1018964;29;1371;-20
2021/10/13 00:31:38;;;;;;;;;;;;;;;;;;1019023;29;1756;-20
2021/10/13 00:32:08;;;;;;;;;;;;;;;;;;1019050;29;1191;-21
2021/10/13 00:32:39;;;;;;;;;;;;;;;;;;1019332;29;1053;-21
2021/10/13 00:33:09;;;;;;;;;;;;;;;;;;1021825;29;1220;-26
2021/10/13 00:33:39;;;;;;;;;;;;;;;;;;1022416;29;1207;-22
2021/10/13 00:34:10;;;;;;;;;;;;;;;;;;1022326;29;1239;-25
2021/10/13 00:34:40;;;;;;;;;;;;;;;;;;1021841;29;1243;-23
2021/10/13 00:35:11;;;;;;;;;;;;;;;;;;1019141;29;1174;-23
2021/10/13 00:35:41;;;;;;;;;;;;;;;;;;1022058;29;1413;-24
2021/10/13 00:36:12;;;;;;;;;;;;;;;;;;1022022;29;1130;-22
2021/10/13 00:36:42;;;;;;;;;;;;;;;;;;1022568;29;1095;-23
2021/10/13 00:37:12;;;;;;;;;;;;;;;;;;1021687;28;1584;-24
2021/10/13 00:37:43;;;;;;;;;;;;;;;;;;1018377;29;1580;-23
2021/10/13 00:38:13;;;;;;;;;;;;;;;;;;1018287;29;1012;-24
2021/10/13 00:38:44;;;;;;;;;;;;;;;;;;1017997;29;3573;-24
2021/10/13 00:39:14;;;;;;;;;;;;;;;;;;1018433;29;1275;-24
2021/10/13 00:39:44;;;;;;;;;;;;;;;;;;1018881;29;1657;-23
2021/10/13 00:40:15;;;;;;;;;;;;;;;;;;1018940;29;1201;-23
2021/10/13 00:40:45;;;;;;;;;;;;;;;;;;1018994;29;1408;-23
2021/10/13 00:41:15;;;;;;;;;;;;;;;;;;1019055;29;964;-24
2021/10/13 00:41:46;;;;;;;;;;;;;;;;;;1019359;29;933;-24
2021/10/13 00:42:17;;;;;;;;;;;;;;;;;;1018775;29;1271;-22
2021/10/13 00:42:47;;;;;;;;;;;;;;;;;;1014117;29;2528;-23
2021/10/13 00:43:17;;;;;;;;;;;;;;;;;;1014376;29;1297;-23
2021/10/13 00:43:48;;;;;;;;;;;;;;;;;;1014408;29;1433;-22
2021/10/13 00:44:19;;;;;;;;;;;;;;;;;;1014263;29;1047;-22
2021/10/13 00:44:49;;;;;;;;;;;;;;;;;;1014718;29;1086;-21
2021/10/13 00:45:20;;;;;;;;;;;;;;;;;;1014348;29;1062;-23
2021/10/13 00:45:52;;;;;;;;;;;;;;;;;;1010678;29;1047;-23
2021/10/13 00:46:22;;;;;;;;;;;;;;;;;;1009720;29;1299;-22
2021/10/13 00:46:53;;;;;;;;;;;;;;;;;;1013720;29;1990;-22
2021/10/13 00:47:24;;;;;;;;;;;;;;;;;;1014593;29;1119;-24
2021/10/13 00:47:54;;;;;;;;;;;;;;;;;;1017095;29;1334;-23
2021/10/13 00:48:25;;;;;;;;;;;;;;;;;;1018207;29;1141;-23
2021/10/13 00:48:55;;;;;;;;;;;;;;;;;;1018190;29;1411;-24
2021/10/13 00:49:26;;;;;;;;;;;;;;;;;;1018292;29;1033;-23
2021/10/13 00:49:56;;;;;;;;;;;;;;;;;;1018555;29;1323;-23
2021/10/13 00:50:27;;;;;;;;;;;;;;;;;;1022049;28;1326;-24
2021/10/13 00:50:58;;;;;;;;;;;;;;;;;;1021902;28;1439;-25
2021/10/13 00:51:30;;;;;;;;;;;;;;;;;;1018273;29;1068;-23
2021/10/13 00:52:01;;;;;;;;;;;;;;;;;;1017880;29;1546;-24
2021/10/13 00:52:32;;;;;;;;;;;;;;;;;;1017730;29;1713;-24
2021/10/13 00:53:03;;;;;;;;;;;;;;;;;;1010167;29;1707;-24
2021/10/13 00:53:33;;;;;;;;;;;;;;;;;;1014379;29;1143;-23
2021/10/13 00:54:03;;;;;;;;;;;;;;;;;;1014452;29;1060;-24
2021/10/13 00:54:34;;;;;;;;;;;;;;;;;;1021920;29;1272;-22
2021/10/13 00:55:06;;;;;;;;;;;;;;;;;;1018103;29;1195;-23
2021/10/13 00:55:37;;;;;;;;;;;;;;;;;;1018560;29;950;-23
2021/10/13 00:56:08;;;;;;;;;;;;;;;;;;1018359;29;883;-23
2021/10/13 00:56:39;;;;;;;;;;;;;;;;;;1022010;29;1108;-23
2021/10/13 00:57:10;;;;;;;;;;;;;;;;;;1021825;28;1475;-23
2021/10/13 00:57:40;;;;;;;;;;;;;;;;;;1022195;29;1345;-22
2021/10/13 00:58:10;;;;;;;;;;;;;;;;;;1022075;29;1569;-24
2021/10/13 00:58:41;;;;;;;;;;;;;;;;;;1017912;29;1175;-23
2021/10/13 00:59:12;;;;;;;;;;;;;;;;;;1010495;29;1090;-23
2021/10/13 00:59:42;;;;;;;;;;;;;;;;;;1018006;29;1377;-22
2021/10/13 01:00:14;;;;;;;;;;;;;;;;;;1022177;29;1249;-24
2021/10/13 01:00:47;;;;;;;;;;;;;;;;;;1014547;29;980;-23
2021/10/13 01:01:32;;;;;;;;;;;;;;;;;;1021166;29;1651;-23
2021/10/13 01:02:03;;;;;;;;;;;;;;;;;;1009680;29;1266;-24
2021/10/13 01:02:41;;;;;;;;;;;;;;;;;;1008644;29;1079;-24
2021/10/13 01:03:20;;;;;;;;;;;;;;;;;;1013470;29;975;-23
2021/10/13 01:04:10;;;;;;;;;;;;;;;;;;1016929;29;1279;-23
2021/10/13 01:04:59;;;;;;;;;;;;;;;;;;1015144;29;971;-24
2021/10/13 01:05:48;;;;;;;;;;;;;;;;;;1015352;29;1219;-24
2021/10/13 01:06:18;;;;;;;;;;;;;;;;;;1014991;29;952;-23
2021/10/13 01:06:56;;;;;;;;;;;;;;;;;;1014997;29;1914;-24
2021/10/13 01:07:41;;;;;;;;;;;;;;;;;;1014401;29;934;-23
2021/10/13 01:08:21;;;;;;;;;;;;;;;;;;1009567;29;1588;-22
2021/10/13 01:08:57;;;;;;;;;;;;;;;;;;1010237;29;1128;-23
2021/10/13 01:09:31;;;;;;;;;;;;;;;;;;1005990;29;1284;-23
2021/10/13 01:10:10;;;;;;;;;;;;;;;;;;1010421;29;1090;-24
2021/10/13 01:10:56;;;;;;;;;;;;;;;;;;1008365;29;1091;-24
2021/10/13 01:11:39;;;;;;;;;;;;;;;;;;1006326;29;1320;-23
2021/10/13 01:12:19;;;;;;;;;;;;;;;;;;1018522;29;1023;-22
2021/10/13 01:12:55;;;;;;;;;;;;;;;;;;1018473;29;1269;-22
2021/10/13 01:13:41;;;;;;;;;;;;;;;;;;1014709;29;1183;-23
2021/10/13 01:14:27;;;;;;;;;;;;;;;;;;1014426;29;921;-23
2021/10/13 01:15:20;;;;;;;;;;;;;;;;;;1015108;29;1054;-22
2021/10/13 01:15:51;;;;;;;;;;;;;;;;;;1009220;29;1555;-25
2021/10/13 01:16:21;;;;;;;;;;;;;;;;;;1015253;29;1113;-24
2021/10/13 01:17:12;;;;;;;;;;;;;;;;;;1015054;29;1056;-23
2021/10/13 01:17:53;;;;;;;;;;;;;;;;;;1006685;29;1209;-23
2021/10/13 01:18:23;;;;;;;;;;;;;;;;;;1018346;29;1185;-23
2021/10/13 01:19:01;;;;;;;;;;;;;;;;;;1013466;29;1553;-24
2021/10/13 01:19:34;;;;;;;;;;;;;;;;;;1014432;29;1292;-23
2021/10/13 01:20:29;;;;;;;;;;;;;;;;;;1014525;29;1427;-24
2021/10/13 01:21:16;;;;;;;;;;;;;;;;;;1021779;29;1246;-23
2021/10/13 01:21:55;;;;;;;;;;;;;;;;;;1014306;29;1043;-23
2021/10/13 01:22:32;;;;;;;;;;;;;;;;;;1010476;29;1049;-24
2021/10/13 01:23:08;;;;;;;;;;;;;;;;;;1010643;29;934;-23
2021/10/13 01:23:57;;;;;;;;;;;;;;;;;;1013341;29;1044;-23
2021/10/13 01:25:00;;;;;;;;;;;;;;;;;;1022123;29;1031;-23
2021/10/13 01:25:49;;;;;;;;;;;;;;;;;;1002594;29;1060;-24
2021/10/13 01:26:31;;;;;;;;;;;;;;;;;;1002714;29;1132;-23
2021/10/13 01:27:33;;;;;;;;;;;;;;;;;;1014359;29;1911;-22
2021/10/13 01:28:08;;;;;;;;;;;;;;;;;;1004616;29;1113;-23
2021/10/13 01:28:41;;;;;;;;;;;;;;;;;;998932;29;958;-23
2021/10/13 01:29:13;;;;;;;;;;;;;;;;;;1008381;29;1290;-23
2021/10/13 01:29:45;;;;;;;;;;;;;;;;;;1009842;29;1681;-22
2021/10/13 01:30:16;;;;;;;;;;;;;;;;;;1010682;29;1227;-22
2021/10/13 01:31:06;;;;;;;;;;;;;;;;;;1014495;29;1032;-22
2021/10/13 01:31:40;;;;;;;;;;;;;;;;;;1014958;29;1394;-21
2021/10/13 01:32:13;;;;;;;;;;;;;;;;;;1018028;29;1092;-24
2021/10/13 01:32:45;;;;;;;;;;;;;;;;;;1014093;29;1234;-22
2021/10/13 01:33:18;;;;;;;;;;;;;;;;;;1013831;29;1392;-23
2021/10/13 01:33:54;;;;;;;;;;;;;;;;;;1009387;29;1050;-22
2021/10/13 01:34:25;;;;;;;;;;;;;;;;;;1005048;29;1099;-23
2021/10/13 01:34:57;;;;;;;;;;;;;;;;;;1009467;29;1469;-24
2021/10/13 01:35:29;;;;;;;;;;;;;;;;;;1006997;29;1675;-24
2021/10/13 01:36:02;;;;;;;;;;;;;;;;;;1011338;29;1546;-24
2021/10/13 01:36:36;;;;;;;;;;;;;;;;;;1018293;29;1273;-24
2021/10/13 01:37:07;;;;;;;;;;;;;;;;;;1018442;29;1002;-24
2021/10/13 01:37:42;;;;;;;;;;;;;;;;;;1018563;29;1276;-24
2021/10/13 01:38:14;;;;;;;;;;;;;;;;;;1018078;29;975;-22
2021/10/13 01:38:49;;;;;;;;;;;;;;;;;;1021993;29;3557;-25
2021/10/13 01:39:20;;;;;;;;;;;;;;;;;;1014091;29;1118;-23
2021/10/13 01:39:52;;;;;;;;;;;;;;;;;;1013242;29;1202;-23
2021/10/13 01:40:28;;;;;;;;;;;;;;;;;;1009655;29;1239;-24
2021/10/13 01:41:00;;;;;;;;;;;;;;;;;;1008746;29;1129;-24
2021/10/13 01:41:33;;;;;;;;;;;;;;;;;;1018080;29;1506;-24
2021/10/13 01:42:05;;;;;;;;;;;;;;;;;;1014056;29;1128;-21
2021/10/13 01:42:36;;;;;;;;;;;;;;;;;;1008942;29;1008;-23
2021/10/13 01:43:07;;;;;;;;;;;;;;;;;;1009519;29;1392;-23
2021/10/13 01:43:41;;;;;;;;;;;;;;;;;;1010653;29;1093;-24
2021/10/13 01:44:13;;;;;;;;;;;;;;;;;;1010543;29;1813;-24
2021/10/13 01:44:47;;;;;;;;;;;;;;;;;;1013704;29;1096;-24
2021/10/13 01:45:18;;;;;;;;;;;;;;;;;;1010570;29;1005;-23
2021/10/13 01:45:50;;;;;;;;;;;;;;;;;;1014546;29;1499;-23
2021/10/13 01:46:21;;;;;;;;;;;;;;;;;;1018411;29;1152;-23
2021/10/13 01:46:51;;;;;;;;;;;;;;;;;;1017876;29;2005;-23
2021/10/13 01:47:22;;;;;;;;;;;;;;;;;;1018128;29;1021;-24
2021/10/13 01:47:53;;;;;;;;;;;;;;;;;;1014551;29;912;-23
2021/10/13 01:48:25;;;;;;;;;;;;;;;;;;1009782;29;1910;-24
2021/10/13 01:48:57;;;;;;;;;;;;;;;;;;1010231;29;1047;-23
2021/10/13 01:49:32;;;;;;;;;;;;;;;;;;1002678;29;1140;-23
2021/10/13 01:50:03;;;;;;;;;;;;;;;;;;1004209;29;1425;-24
2021/10/13 01:50:33;;;;;;;;;;;;;;;;;;1010635;29;1378;-24
2021/10/13 01:51:04;;;;;;;;;;;;;;;;;;1010975;29;1263;-23
2021/10/13 01:51:36;;;;;;;;;;;;;;;;;;1014959;29;1269;-22
2021/10/13 01:52:07;;;;;;;;;;;;;;;;;;1013553;29;1263;-23
2021/10/13 01:52:38;;;;;;;;;;;;;;;;;;1014353;29;1072;-22
2021/10/13 01:53:10;;;;;;;;;;;;;;;;;;1014228;29;1143;-25
2021/10/13 01:53:41;;;;;;;;;;;;;;;;;;1009918;29;1483;-25
2021/10/13 01:54:14;;;;;;;;;;;;;;;;;;1006100;29;1174;-24
2021/10/13 01:54:45;;;;;;;;;;;;;;;;;;1002550;29;1081;-23
2021/10/13 01:55:19;;;;;;;;;;;;;;;;;;1001368;29;1163;-22
2021/10/13 01:55:50;;;;;;;;;;;;;;;;;;998610;29;1140;-22
2021/10/13 01:56:22;;;;;;;;;;;;;;;;;;995076;29;1148;-22
2021/10/13 01:56:53;;;;;;;;;;;;;;;;;;996164;29;1054;-23
2021/10/13 01:57:24;;;;;;;;;;;;;;;;;;1002383;29;1100;-22
2021/10/13 01:57:57;;;;;;;;;;;;;;;;;;1002410;29;1340;-23
2021/10/13 01:58:28;;;;;;;;;;;;;;;;;;1006651;29;1328;-25
2021/10/13 01:59:02;;;;;;;;;;;;;;;;;;1006951;29;1384;-22
2021/10/13 01:59:32;;;;;;;;;;;;;;;;;;1014898;29;1271;-24
2021/10/13 02:00:05;;;;;;;;;;;;;;;;;;1015035;29;1084;-23
2021/10/13 02:00:36;;;;;;;;;;;;;;;;;;1015984;29;1305;-23
2021/10/13 02:01:09;;;;;;;;;;;;;;;;;;1018099;29;1164;-22
2021/10/13 02:01:42;;;;;;;;;;;;;;;;;;1014040;29;1382;-22
2021/10/13 02:02:12;;;;;;;;;;;;;;;;;;1013841;29;1104;-23
2021/10/13 02:02:43;;;;;;;;;;;;;;;;;;1015142;29;1224;-22
2021/10/13 02:03:14;;;;;;;;;;;;;;;;;;1017801;29;1564;-22
2021/10/13 02:03:47;;;;;;;;;;;;;;;;;;1018842;29;1253;-22
2021/10/13 02:04:18;;;;;;;;;;;;;;;;;;1017635;29;1566;-23
2021/10/13 02:04:49;;;;;;;;;;;;;;;;;;1014369;29;1234;-23
2021/10/13 02:05:20;;;;;;;;;;;;;;;;;;1010263;29;1189;-22
2021/10/13 02:05:53;;;;;;;;;;;;;;;;;;1009914;29;1580;-24
2021/10/13 02:06:24;;;;;;;;;;;;;;;;;;1013615;29;1215;-23
2021/10/13 02:06:55;;;;;;;;;;;;;;;;;;1010618;29;1994;-22
2021/10/13 02:07:27;;;;;;;;;;;;;;;;;;1018147;29;1151;-24
2021/10/13 02:07:58;;;;;;;;;;;;;;;;;;1017947;29;1238;-22
2021/10/13 02:08:29;;;;;;;;;;;;;;;;;;1017693;29;1383;-22
2021/10/13 02:09:00;;;;;;;;;;;;;;;;;;1014144;29;1073;-25
2021/10/13 02:09:31;;;;;;;;;;;;;;;;;;1013859;29;1528;-23
2021/10/13 02:10:04;;;;;;;;;;;;;;;;;;1014018;29;1077;-22
2021/10/13 02:10:36;;;;;;;;;;;;;;;;;;1014727;29;1395;-23
2021/10/13 02:11:07;;;;;;;;;;;;;;;;;;1017811;29;1558;-24
2021/10/13 02:11:39;;;;;;;;;;;;;;;;;;1018016;29;1166;-23
2021/10/13 02:12:10;;;;;;;;;;;;;;;;;;1017958;29;1017;-23
2021/10/13 02:12:45;;;;;;;;;;;;;;;;;;1018128;29;1083;-21
2021/10/13 02:13:20;;;;;;;;;;;;;;;;;;1017591;29;1192;-23
2021/10/13 02:13:52;;;;;;;;;;;;;;;;;;1012476;29;1416;-22
2021/10/13 02:14:24;;;;;;;;;;;;;;;;;;1010262;29;1137;-24
2021/10/13 02:14:55;;;;;;;;;;;;;;;;;;1009858;29;1596;-22
2021/10/13 02:15:26;;;;;;;;;;;;;;;;;;1006804;29;1138;-23
2021/10/13 02:15:58;;;;;;;;;;;;;;;;;;1002863;29;1049;-24
2021/10/13 02:16:28;;;;;;;;;;;;;;;;;;1006257;29;1392;-23
2021/10/13 02:16:59;;;;;;;;;;;;;;;;;;1006264;29;1157;-24
2021/10/13 02:17:31;;;;;;;;;;;;;;;;;;1010577;29;1369;-24
2021/10/13 02:18:01;;;;;;;;;;;;;;;;;;1018636;29;1049;-23
2021/10/13 02:18:33;;;;;;;;;;;;;;;;;;1018828;29;1057;-22
2021/10/13 02:19:06;;;;;;;;;;;;;;;;;;1021169;29;1368;-23
2021/10/13 02:19:37;;;;;;;;;;;;;;;;;;1018158;29;1022;-22
2021/10/13 02:20:08;;;;;;;;;;;;;;;;;;1017823;29;1275;-22
2021/10/13 02:20:39;;;;;;;;;;;;;;;;;;1018112;29;1241;-22
2021/10/13 02:21:09;;;;;;;;;;;;;;;;;;1018023;29;1240;-23
2021/10/13 02:21:41;;;;;;;;;;;;;;;;;;1018795;29;1502;-22
2021/10/13 02:22:12;;;;;;;;;;;;;;;;;;1010075;29;1063;-22
2021/10/13 02:22:47;;;;;;;;;;;;;;;;;;1002517;29;1326;-24
2021/10/13 02:23:18;;;;;;;;;;;;;;;;;;1002150;29;1196;-21
2021/10/13 02:23:49;;;;;;;;;;;;;;;;;;1004873;29;1252;-23
2021/10/13 02:24:28;;;;;;;;;;;;;;;;;;1009694;29;1417;-23
2021/10/13 02:24:59;;;;;;;;;;;;;;;;;;1013920;29;1343;-22
2021/10/13 02:25:32;;;;;;;;;;;;;;;;;;1010349;29;1423;-23
2021/10/13 02:26:06;;;;;;;;;;;;;;;;;;1005037;29;1183;-22
2021/10/13 02:26:42;;;;;;;;;;;;;;;;;;1010316;29;1033;-24
2021/10/13 02:27:24;;;;;;;;;;;;;;;;;;1009684;29;1907;-24
2021/10/13 02:27:56;;;;;;;;;;;;;;;;;;1015780;29;1132;-23
2021/10/13 02:28:31;;;;;;;;;;;;;;;;;;1018666;29;1279;-23
2021/10/13 02:29:04;;;;;;;;;;;;;;;;;;1018678;29;1159;-24
2021/10/13 02:29:36;;;;;;;;;;;;;;;;;;1018568;29;1523;-23
2021/10/13 02:30:07;;;;;;;;;;;;;;;;;;1018315;29;1331;-23
2021/10/13 02:30:38;;;;;;;;;;;;;;;;;;1018667;29;1016;-23
2021/10/13 02:31:09;;;;;;;;;;;;;;;;;;1018449;29;1527;-24
2021/10/13 02:31:39;;;;;;;;;;;;;;;;;;1018548;29;1084;-24
2021/10/13 02:32:12;;;;;;;;;;;;;;;;;;1014085;29;1261;-24
2021/10/13 02:32:42;;;;;;;;;;;;;;;;;;1013880;29;1489;-24
2021/10/13 02:33:13;;;;;;;;;;;;;;;;;;1010008;29;1199;-23
2021/10/13 02:33:44;;;;;;;;;;;;;;;;;;1013710;29;1363;-22
2021/10/13 02:34:14;;;;;;;;;;;;;;;;;;1009687;29;1126;-23
2021/10/13 02:34:45;;;;;;;;;;;;;;;;;;1010361;29;1270;-22
2021/10/13 02:35:15;;;;;;;;;;;;;;;;;;1011270;29;2906;-23
2021/10/13 02:35:51;;;;;;;;;;;;;;;;;;1018112;29;1175;-23
2021/10/13 02:36:21;;;;;;;;;;;;;;;;;;1025521;28;1405;-22
2021/10/13 02:36:52;;;;;;;;;;;;;;;;;;1017755;29;1104;-23
2021/10/13 02:37:22;;;;;;;;;;;;;;;;;;1017940;29;1268;-22
2021/10/13 02:37:53;;;;;;;;;;;;;;;;;;1013468;29;1303;-24
2021/10/13 02:38:23;;;;;;;;;;;;;;;;;;1013900;29;3608;-22
2021/10/13 02:38:53;;;;;;;;;;;;;;;;;;1014163;29;899;-23
2021/10/13 02:39:24;;;;;;;;;;;;;;;;;;1014278;29;1185;-24
2021/10/13 02:39:54;;;;;;;;;;;;;;;;;;1014703;29;962;-23
2021/10/13 02:40:24;;;;;;;;;;;;;;;;;;1014819;29;1143;-23
2021/10/13 02:40:55;;;;;;;;;;;;;;;;;;1014787;29;988;-24
2021/10/13 02:41:26;;;;;;;;;;;;;;;;;;1010197;29;1055;-23
2021/10/13 02:41:57;;;;;;;;;;;;;;;;;;1013631;29;1589;-24
2021/10/13 02:42:27;;;;;;;;;;;;;;;;;;1010144;29;1083;-24
2021/10/13 02:42:58;;;;;;;;;;;;;;;;;;1009498;29;1493;-23
2021/10/13 02:43:28;;;;;;;;;;;;;;;;;;1002445;29;1345;-23
2021/10/13 02:43:59;;;;;;;;;;;;;;;;;;1006193;29;1393;-22
2021/10/13 02:44:30;;;;;;;;;;;;;;;;;;1001893;29;1383;-23
2021/10/13 02:45:01;;;;;;;;;;;;;;;;;;1002440;29;1286;-22
2021/10/13 02:45:35;;;;;;;;;;;;;;;;;;998585;29;1172;-22
2021/10/13 02:46:11;;;;;;;;;;;;;;;;;;996108;29;1649;-22
2021/10/13 02:46:45;;;;;;;;;;;;;;;;;;1010379;29;1188;-22
2021/10/13 02:47:18;;;;;;;;;;;;;;;;;;1008976;29;2255;-22
2021/10/13 02:47:55;;;;;;;;;;;;;;;;;;1014003;29;1273;-25
2021/10/13 02:48:29;;;;;;;;;;;;;;;;;;1013681;29;1528;-24
2021/10/13 02:49:04;;;;;;;;;;;;;;;;;;1009879;29;1114;-22
2021/10/13 02:49:35;;;;;;;;;;;;;;;;;;1013928;29;1095;-23
2021/10/13 02:50:31;;;;;;;;;;;;;;;;;;1013973;29;1406;-23
2021/10/13 02:51:07;;;;;;;;;;;;;;;;;;1006066;29;1326;-23
2021/10/13 02:51:50;;;;;;;;;;;;;;;;;;998438;29;1603;-25
2021/10/13 02:52:36;;;;;;;;;;;;;;;;;;1006134;29;1578;-23
2021/10/13 02:53:09;;;;;;;;;;;;;;;;;;1006105;29;976;-24
2021/10/13 02:53:40;;;;;;;;;;;;;;;;;;1006019;29;1006;-24
2021/10/13 02:54:14;;;;;;;;;;;;;;;;;;1006163;29;1020;-22
2021/10/13 02:54:54;;;;;;;;;;;;;;;;;;1006296;29;1312;-22
2021/10/13 02:55:29;;;;;;;;;;;;;;;;;;1006153;29;1493;-23
2021/10/13 02:56:06;;;;;;;;;;;;;;;;;;1006269;29;1175;-24
2021/10/13 02:56:40;;;;;;;;;;;;;;;;;;1011089;29;1564;-24
2021/10/13 02:57:12;;;;;;;;;;;;;;;;;;1009903;29;959;-23
2021/10/13 02:57:44;;;;;;;;;;;;;;;;;;1008586;29;1220;-24
2021/10/13 02:58:22;;;;;;;;;;;;;;;;;;1009035;29;1502;-23
2021/10/13 02:59:08;;;;;;;;;;;;;;;;;;1006120;29;1051;-23
2021/10/13 02:59:41;;;;;;;;;;;;;;;;;;1003301;29;1174;-23
2021/10/13 03:00:12;;;;;;;;;;;;;;;;;;1009365;29;1069;-24
2021/10/13 03:00:45;;;;;;;;;;;;;;;;;;1012957;29;1608;-23
2021/10/13 03:01:16;;;;;;;;;;;;;;;;;;1013305;29;1715;-22
2021/10/13 03:01:48;;;;;;;;;;;;;;;;;;1014329;29;1359;-24
2021/10/13 03:02:25;;;;;;;;;;;;;;;;;;1013243;29;1692;-23
2021/10/13 03:02:57;;;;;;;;;;;;;;;;;;1013850;29;1070;-22
2021/10/13 03:03:35;;;;;;;;;;;;;;;;;;1014132;29;982;-24
2021/10/13 03:04:09;;;;;;;;;;;;;;;;;;1013846;29;1168;-23
2021/10/13 03:04:43;;;;;;;;;;;;;;;;;;1014669;29;1122;-23
2021/10/13 03:05:17;;;;;;;;;;;;;;;;;;1012738;29;1433;-23
2021/10/13 03:05:48;;;;;;;;;;;;;;;;;;1013922;29;1098;-24
2021/10/13 03:06:20;;;;;;;;;;;;;;;;;;1013777;29;1089;-23
2021/10/13 03:06:53;;;;;;;;;;;;;;;;;;1008041;29;1979;-24
2021/10/13 03:07:26;;;;;;;;;;;;;;;;;;1008522;29;1213;-22
2021/10/13 03:08:00;;;;;;;;;;;;;;;;;;1005994;29;1245;-24
2021/10/13 03:08:33;;;;;;;;;;;;;;;;;;1008333;29;1026;-22
2021/10/13 03:09:04;;;;;;;;;;;;;;;;;;1014211;29;1619;-23
2021/10/13 03:09:38;;;;;;;;;;;;;;;;;;1014691;29;1075;-24
2021/10/13 03:10:09;;;;;;;;;;;;;;;;;;1014056;29;1089;-22
2021/10/13 03:10:40;;;;;;;;;;;;;;;;;;1008724;29;1151;-23
2021/10/13 03:11:12;;;;;;;;;;;;;;;;;;1005270;29;1187;-24
2021/10/13 03:11:43;;;;;;;;;;;;;;;;;;1002257;29;1478;-23
2021/10/13 03:12:14;;;;;;;;;;;;;;;;;;1003240;29;1105;-22
2021/10/13 03:12:49;;;;;;;;;;;;;;;;;;1017543;29;1273;-25
2021/10/13 03:13:22;;;;;;;;;;;;;;;;;;1012945;29;1488;-25
2021/10/13 03:13:53;;;;;;;;;;;;;;;;;;1002212;29;1302;-24
2021/10/13 03:14:24;;;;;;;;;;;;;;;;;;999521;29;1065;-24
2021/10/13 03:14:55;;;;;;;;;;;;;;;;;;1002232;29;1104;-24
2021/10/13 03:15:26;;;;;;;;;;;;;;;;;;1002773;29;948;-23
2021/10/13 03:15:58;;;;;;;;;;;;;;;;;;1005870;29;1533;-24
2021/10/13 03:16:28;;;;;;;;;;;;;;;;;;1010339;29;1162;-23
2021/10/13 03:17:00;;;;;;;;;;;;;;;;;;1014127;29;946;-23
2021/10/13 03:17:30;;;;;;;;;;;;;;;;;;1013902;29;1057;-25
2021/10/13 03:18:01;;;;;;;;;;;;;;;;;;1014667;29;882;-24
2021/10/13 03:18:34;;;;;;;;;;;;;;;;;;1014268;29;1549;-24
2021/10/13 03:19:05;;;;;;;;;;;;;;;;;;1014079;29;1158;-25
2021/10/13 03:19:38;;;;;;;;;;;;;;;;;;1017594;29;1305;-24
2021/10/13 03:20:11;;;;;;;;;;;;;;;;;;1001999;29;1126;-23
2021/10/13 03:20:42;;;;;;;;;;;;;;;;;;997398;29;1082;-23
2021/10/13 03:21:14;;;;;;;;;;;;;;;;;;991524;29;1384;-23
2021/10/13 03:21:44;;;;;;;;;;;;;;;;;;999919;29;1295;-24
2021/10/13 03:22:17;;;;;;;;;;;;;;;;;;1010206;29;1221;-24
2021/10/13 03:22:48;;;;;;;;;;;;;;;;;;1001709;29;1164;-22
2021/10/13 03:23:19;;;;;;;;;;;;;;;;;;1006483;29;1202;-23
2021/10/13 03:23:50;;;;;;;;;;;;;;;;;;1009194;29;1425;-24
2021/10/13 03:24:21;;;;;;;;;;;;;;;;;;1010561;29;1143;-23
2021/10/13 03:24:51;;;;;;;;;;;;;;;;;;1021730;29;1023;-24
2021/10/13 03:25:23;;;;;;;;;;;;;;;;;;1021060;29;1403;-24
2021/10/13 03:26:03;;;;;;;;;;;;;;;;;;1018102;29;1106;-23
2021/10/13 03:26:33;;;;;;;;;;;;;;;;;;1022849;28;1480;-25
2021/10/13 03:27:04;;;;;;;;;;;;;;;;;;1017634;29;1946;-23
2021/10/13 03:27:34;;;;;;;;;;;;;;;;;;1016818;29;1035;-23
2021/10/13 03:28:05;;;;;;;;;;;;;;;;;;1013380;29;1146;-23
2021/10/13 03:28:36;;;;;;;;;;;;;;;;;;1009987;29;1216;-23
2021/10/13 03:29:10;;;;;;;;;;;;;;;;;;1017392;29;1848;-23
2021/10/13 03:29:41;;;;;;;;;;;;;;;;;;1009965;29;1285;-23
2021/10/13 03:30:11;;;;;;;;;;;;;;;;;;1010002;29;943;-23
2021/10/13 03:30:44;;;;;;;;;;;;;;;;;;1009344;29;1299;-22
2021/10/13 03:31:14;;;;;;;;;;;;;;;;;;1002119;29;1061;-23
2021/10/13 03:31:45;;;;;;;;;;;;;;;;;;1005867;29;2824;-24
2021/10/13 03:32:17;;;;;;;;;;;;;;;;;;1009400;29;1151;-25
2021/10/13 03:32:49;;;;;;;;;;;;;;;;;;1005214;29;1078;-24
2021/10/13 03:33:19;;;;;;;;;;;;;;;;;;999172;29;1161;-22
2021/10/13 03:33:52;;;;;;;;;;;;;;;;;;1006166;29;1199;-23
2021/10/13 03:34:23;;;;;;;;;;;;;;;;;;1002617;29;1153;-22
2021/10/13 03:34:54;;;;;;;;;;;;;;;;;;1005905;29;1377;-23
2021/10/13 03:35:24;;;;;;;;;;;;;;;;;;1005179;29;1126;-22
2021/10/13 03:35:55;;;;;;;;;;;;;;;;;;998307;29;1286;-22
2021/10/13 03:36:26;;;;;;;;;;;;;;;;;;1002625;29;1055;-23
2021/10/13 03:36:56;;;;;;;;;;;;;;;;;;1009361;29;1467;-23
2021/10/13 03:37:27;;;;;;;;;;;;;;;;;;1017458;29;1138;-24
2021/10/13 03:37:58;;;;;;;;;;;;;;;;;;1005632;29;1053;-25
2021/10/13 03:38:29;;;;;;;;;;;;;;;;;;997498;29;3594;-24
2021/10/13 03:38:59;;;;;;;;;;;;;;;;;;1002257;29;1202;-25
2021/10/13 03:39:30;;;;;;;;;;;;;;;;;;1002709;29;1121;-22
2021/10/13 03:40:01;;;;;;;;;;;;;;;;;;1005358;29;1275;-22
2021/10/13 03:40:32;;;;;;;;;;;;;;;;;;1006193;29;1094;-23
2021/10/13 03:41:03;;;;;;;;;;;;;;;;;;1005690;29;1206;-23
2021/10/13 03:41:33;;;;;;;;;;;;;;;;;;1006304;29;1210;-23
2021/10/13 03:42:04;;;;;;;;;;;;;;;;;;1013845;29;936;-24
2021/10/13 03:42:34;;;;;;;;;;;;;;;;;;1013433;29;1582;-23
2021/10/13 03:43:05;;;;;;;;;;;;;;;;;;1009950;29;1054;-22
2021/10/13 03:43:46;;;;;;;;;;;;;;;;;;1006163;29;1008;-23
2021/10/13 03:44:18;;;;;;;;;;;;;;;;;;1008301;29;1137;-24
2021/10/13 03:44:48;;;;;;;;;;;;;;;;;;1006444;29;1130;-24
2021/10/13 03:45:20;;;;;;;;;;;;;;;;;;1005834;29;1374;-22
2021/10/13 03:45:51;;;;;;;;;;;;;;;;;;1006186;29;1060;-22
2021/10/13 03:46:23;;;;;;;;;;;;;;;;;;1009975;29;1022;-24
2021/10/13 03:46:54;;;;;;;;;;;;;;;;;;1013592;29;1976;-24
2021/10/13 03:47:24;;;;;;;;;;;;;;;;;;1009341;29;1312;-22
2021/10/13 03:47:55;;;;;;;;;;;;;;;;;;1009007;29;1396;-23
2021/10/13 03:48:30;;;;;;;;;;;;;;;;;;1009968;29;1028;-23